Philadelphia, Tennessee
Current Conditions -  °F | °C
As of 3:35 PM on Thursday 27 Nov 2014 (Local Time) from KMMI Reporting Station
Overcast Overcast  
Wind Chill: 34°   Ceiling: 3500
Heat Index: 37°   Visibility: 10mi
Dew Point: 25°   Wind: 5mph
Humidity: 60%   Direction: NA
Pressure: 30.33"   Gusts: NA
Location:  35.68°N, 84.4°W
Report Text: KMMI 272035Z AUTO VRB04KT 10SM BKN035 OVC049 03/M04 A3033 RMK
Loading
Personal Weather Stations






























Interactive Weather Map New forecast layout! Learn more

10-Day Weather Forecast

Advertisements
Track Severe Weather on mobile